Aérodrome :
LOGIN :

S'inscrire | Disclaimer

   EN    FR    IT 

 










Légende :    VFR   VFR Marginal   IFR   IFR Intensif   IFR Très Intensif
Visi : 
Plafond : 
>= 8 km
>= 3000ft
5 à 8 km
1000 à 3000 ft
1500m à 5 km
500 à 1000 ft
800 à 1500m
200 à 500 ft
< 800m
< 200 ft
Symboles :   Orages  Brouillard  Fortes neiges  Fortes précipitations  Vent > 20 kt
SIGMETs :   Divers  Orages  Givrage  Turbulence  Onde Orograph.  Cendres Volcan.







- Altitude de l'aérodrome : 529 ft
- Code IATA : CHR
- Voir les cartes d'approche


LFLX - Chateauroux

DERNIER METAR :
  • 152000Z AUTO 19008KT 9999 -RA OVC012 07/06 Q1012 TEMPO 2000 RA BKN004

METARs EXPIRÉS :
  • 151930Z AUTO 17005KT 8000 SCT009/// OVC013/// ///TCU 04/04 Q1012 TEMPO 2000 RA BKN004
  • 151900Z AUTO 13006KT 3400 -DZ BR OVC007 04/03 Q1012 TEMPO 2000 RA BKN004
  • 151830Z AUTO 11004KT 3200 -RA BR OVC004/// ///TCU 02/02 Q1013 TEMPO 2000 RA BKN004
  • 151800Z AUTO 11006KT 2300 -SNRA BR BKN006/// OVC010/// ///TCU 03/03 Q1013 TEMPO RA BKN004
  • 151730Z AUTO 10004KT 3300 +SNRA BR BKN003/// OVC011/// ///TCU 02/02 Q1013 TEMPO 2000 RA BKN004
  • 151700Z AUTO 10004KT 4500 -SNRA BR BKN003/// OVC012/// ///TCU 02/01 Q1014 TEMPO 1400 RA OVC003

TAF TAF LFLX
Valide du 15 à 18h jusqu'au 17 à 00h UTC


151700Z 1518/1624 19006KT 4000 -RA BKN012
TEMPO 1518/1522 2000 RA BKN004
BECMG 1522/1524 BR BKN008
TEMPO 1522/1601 20015G25KT
TEMPO 1600/1612 2500 BR OVC004
PROB30
TEMPO 1604/1610 0800 FG VV///
BECMG 1612/1614 9999 NSW SCT012
PROB30
TEMPO 1613/1616 BKN012
TEMPO 1617/1621 4000 SHRA BKN008 SCT020CB
Pas de NOTAMs connus pour ce terrain.



MET'MAP, la Météo Aéronautique d'un coup d'oeil ! - Copyright ORBIFLY Décembre 2007 - Disclaimer

ORBIFLY MET'MAP TEAM :

Programmation & Développement : Alexandra Zaïnal
Conception & Développement : Baudouin d'Aumeries
Co-Programmation & Développement : Marc-Olivier Méhu
Soutien technique & logistique : Manuel Goepfert

Contact : metmap@orbifly.com




SOURCES & CREDITS :

   NOAA